sensor_id;sensor_type;location;lat;lon;timestamp;P1;durP1;ratioP1;P2;durP2;ratioP2
75550;SDS011;65071;53.082;18.218;2023-12-28T00:00:16;20.70;;;9.20;;
75550;SDS011;65071;53.082;18.218;2023-12-28T00:03:03;26.20;;;8.90;;
75550;SDS011;65071;53.082;18.218;2023-12-28T00:05:30;30.80;;;10.90;;
75550;SDS011;65071;53.082;18.218;2023-12-28T00:07:56;20.70;;;9.40;;
75550;SDS011;65071;53.082;18.218;2023-12-28T00:10:25;23.00;;;9.30;;
75550;SDS011;65071;53.082;18.218;2023-12-28T00:12:52;22.50;;;9.70;;
75550;SDS011;65071;53.082;18.218;2023-12-28T00:15:19;23.50;;;9.80;;
75550;SDS011;65071;53.082;18.218;2023-12-28T00:17:46;18.20;;;8.20;;
75550;SDS011;65071;53.082;18.218;2023-12-28T00:20:12;20.60;;;9.30;;
75550;SDS011;65071;53.082;18.218;2023-12-28T00:22:39;23.70;;;8.60;;
75550;SDS011;65071;53.082;18.218;2023-12-28T00:25:06;24.50;;;10.00;;
75550;SDS011;65071;53.082;18.218;2023-12-28T00:27:32;26.20;;;9.50;;
75550;SDS011;65071;53.082;18.218;2023-12-28T00:30:00;22.40;;;9.30;;
75550;SDS011;65071;53.082;18.218;2023-12-28T00:32:27;16.90;;;7.00;;
75550;SDS011;65071;53.082;18.218;2023-12-28T00:34:54;23.70;;;9.50;;
75550;SDS011;65071;53.082;18.218;2023-12-28T00:37:20;27.30;;;10.10;;
75550;SDS011;65071;53.082;18.218;2023-12-28T00:39:46;26.30;;;9.60;;
75550;SDS011;65071;53.082;18.218;2023-12-28T00:42:17;19.00;;;6.70;;
75550;SDS011;65071;53.082;18.218;2023-12-28T00:44:45;26.00;;;10.00;;
75550;SDS011;65071;53.082;18.218;2023-12-28T00:47:11;25.50;;;9.30;;
75550;SDS011;65071;53.082;18.218;2023-12-28T00:49:38;27.70;;;10.10;;
75550;SDS011;65071;53.082;18.218;2023-12-28T00:52:04;29.60;;;10.30;;
75550;SDS011;65071;53.082;18.218;2023-12-28T00:54:31;22.60;;;9.00;;
75550;SDS011;65071;53.082;18.218;2023-12-28T00:56:57;21.50;;;9.30;;
75550;SDS011;65071;53.082;18.218;2023-12-28T00:59:23;15.10;;;5.80;;
75550;SDS011;65071;53.082;18.218;2023-12-28T01:01:50;23.60;;;9.10;;
75550;SDS011;65071;53.082;18.218;2023-12-28T01:04:16;19.30;;;7.40;;
75550;SDS011;65071;53.082;18.218;2023-12-28T01:06:43;21.80;;;8.90;;
75550;SDS011;65071;53.082;18.218;2023-12-28T01:09:09;20.60;;;6.50;;
75550;SDS011;65071;53.082;18.218;2023-12-28T01:11:36;19.60;;;7.70;;
75550;SDS011;65071;53.082;18.218;2023-12-28T01:14:02;21.00;;;7.90;;
75550;SDS011;65071;53.082;18.218;2023-12-28T01:16:29;24.20;;;8.90;;
75550;SDS011;65071;53.082;18.218;2023-12-28T01:18:55;17.20;;;6.40;;
75550;SDS011;65071;53.082;18.218;2023-12-28T01:21:22;20.50;;;8.30;;
75550;SDS011;65071;53.082;18.218;2023-12-28T01:23:49;16.90;;;6.20;;
75550;SDS011;65071;53.082;18.218;2023-12-28T01:26:15;18.20;;;7.40;;
75550;SDS011;65071;53.082;18.218;2023-12-28T01:28:43;26.60;;;9.20;;
75550;SDS011;65071;53.082;18.218;2023-12-28T01:31:09;22.80;;;8.10;;
75550;SDS011;65071;53.082;18.218;2023-12-28T01:33:35;21.90;;;7.70;;
75550;SDS011;65071;53.082;18.218;2023-12-28T01:36:02;19.10;;;8.50;;
75550;SDS011;65071;53.082;18.218;2023-12-28T01:38:29;21.70;;;8.30;;
75550;SDS011;65071;53.082;18.218;2023-12-28T01:40:55;25.70;;;8.40;;
75550;SDS011;65071;53.082;18.218;2023-12-28T01:43:21;21.10;;;7.80;;
75550;SDS011;65071;53.082;18.218;2023-12-28T01:45:48;20.10;;;8.20;;
75550;SDS011;65071;53.082;18.218;2023-12-28T01:48:15;21.90;;;7.60;;
75550;SDS011;65071;53.082;18.218;2023-12-28T01:50:42;20.90;;;7.20;;
75550;SDS011;65071;53.082;18.218;2023-12-28T01:53:08;21.70;;;8.80;;
75550;SDS011;65071;53.082;18.218;2023-12-28T01:55:36;20.10;;;7.70;;
75550;SDS011;65071;53.082;18.218;2023-12-28T01:58:02;16.10;;;7.20;;
75550;SDS011;65071;53.082;18.218;2023-12-28T02:00:29;20.90;;;7.10;;
75550;SDS011;65071;53.082;18.218;2023-12-28T02:02:58;20.40;;;7.50;;
75550;SDS011;65071;53.082;18.218;2023-12-28T02:05:25;23.40;;;7.80;;
75550;SDS011;65071;53.082;18.218;2023-12-28T02:07:51;25.60;;;8.50;;
75550;SDS011;65071;53.082;18.218;2023-12-28T02:10:17;19.70;;;6.80;;
75550;SDS011;65071;53.082;18.218;2023-12-28T02:12:44;21.10;;;8.10;;
75550;SDS011;65071;53.082;18.218;2023-12-28T02:15:10;23.20;;;8.20;;
75550;SDS011;65071;53.082;18.218;2023-12-28T02:17:42;21.50;;;7.70;;
75550;SDS011;65071;53.082;18.218;2023-12-28T02:20:14;16.40;;;6.80;;
75550;SDS011;65071;53.082;18.218;2023-12-28T02:22:41;12.10;;;5.10;;
75550;SDS011;65071;53.082;18.218;2023-12-28T02:25:11;13.30;;;4.30;;
75550;SDS011;65071;53.082;18.218;2023-12-28T02:30:10;11.20;;;4.80;;
75550;SDS011;65071;53.082;18.218;2023-12-28T02:35:27;17.60;;;7.40;;
75550;SDS011;65071;53.082;18.218;2023-12-28T02:37:59;16.20;;;6.30;;
75550;SDS011;65071;53.082;18.218;2023-12-28T02:40:29;16.20;;;6.40;;
75550;SDS011;65071;53.082;18.218;2023-12-28T02:43:00;19.00;;;7.60;;
75550;SDS011;65071;53.082;18.218;2023-12-28T02:45:26;17.30;;;6.40;;
75550;SDS011;65071;53.082;18.218;2023-12-28T02:47:53;18.30;;;7.20;;
75550;SDS011;65071;53.082;18.218;2023-12-28T02:50:20;14.50;;;5.10;;
75550;SDS011;65071;53.082;18.218;2023-12-28T02:52:46;20.30;;;7.00;;
75550;SDS011;65071;53.082;18.218;2023-12-28T02:55:12;13.60;;;5.20;;
75550;SDS011;65071;53.082;18.218;2023-12-28T02:57:39;13.10;;;5.30;;
75550;SDS011;65071;53.082;18.218;2023-12-28T03:00:06;15.60;;;5.50;;
75550;SDS011;65071;53.082;18.218;2023-12-28T03:02:35;23.40;;;7.70;;
75550;SDS011;65071;53.082;18.218;2023-12-28T03:05:06;17.80;;;6.20;;
75550;SDS011;65071;53.082;18.218;2023-12-28T03:07:34;19.90;;;6.30;;
75550;SDS011;65071;53.082;18.218;2023-12-28T03:10:01;13.10;;;5.60;;
75550;SDS011;65071;53.082;18.218;2023-12-28T03:12:29;12.50;;;5.10;;
75550;SDS011;65071;53.082;18.218;2023-12-28T03:14:56;11.80;;;4.50;;
75550;SDS011;65071;53.082;18.218;2023-12-28T03:17:23;12.70;;;5.20;;
75550;SDS011;65071;53.082;18.218;2023-12-28T03:19:49;17.40;;;6.20;;
75550;SDS011;65071;53.082;18.218;2023-12-28T03:22:17;17.80;;;5.90;;
75550;SDS011;65071;53.082;18.218;2023-12-28T03:24:46;14.00;;;4.90;;
75550;SDS011;65071;53.082;18.218;2023-12-28T03:27:12;16.20;;;6.20;;
75550;SDS011;65071;53.082;18.218;2023-12-28T03:29:39;16.70;;;5.80;;
75550;SDS011;65071;53.082;18.218;2023-12-28T03:32:07;11.30;;;3.30;;
75550;SDS011;65071;53.082;18.218;2023-12-28T03:34:34;15.10;;;6.10;;
75550;SDS011;65071;53.082;18.218;2023-12-28T03:37:00;15.90;;;6.10;;
75550;SDS011;65071;53.082;18.218;2023-12-28T03:39:27;16.50;;;5.20;;
75550;SDS011;65071;53.082;18.218;2023-12-28T03:41:54;13.30;;;5.00;;
75550;SDS011;65071;53.082;18.218;2023-12-28T03:44:21;17.30;;;6.60;;
75550;SDS011;65071;53.082;18.218;2023-12-28T03:46:48;14.80;;;5.40;;
75550;SDS011;65071;53.082;18.218;2023-12-28T03:49:19;15.40;;;6.50;;
75550;SDS011;65071;53.082;18.218;2023-12-28T03:51:47;13.80;;;6.40;;
75550;SDS011;65071;53.082;18.218;2023-12-28T03:54:16;12.20;;;5.20;;
75550;SDS011;65071;53.082;18.218;2023-12-28T03:56:43;13.30;;;5.40;;
75550;SDS011;65071;53.082;18.218;2023-12-28T03:59:09;12.70;;;5.60;;
75550;SDS011;65071;53.082;18.218;2023-12-28T04:01:36;12.90;;;4.40;;
75550;SDS011;65071;53.082;18.218;2023-12-28T04:04:03;15.60;;;6.20;;
75550;SDS011;65071;53.082;18.218;2023-12-28T04:06:29;14.80;;;5.80;;
75550;SDS011;65071;53.082;18.218;2023-12-28T04:08:56;12.90;;;5.80;;
75550;SDS011;65071;53.082;18.218;2023-12-28T04:11:23;13.10;;;4.40;;
75550;SDS011;65071;53.082;18.218;2023-12-28T04:13:49;15.50;;;5.70;;
75550;SDS011;65071;53.082;18.218;2023-12-28T04:16:16;12.10;;;5.30;;
75550;SDS011;65071;53.082;18.218;2023-12-28T04:18:43;12.60;;;4.60;;
75550;SDS011;65071;53.082;18.218;2023-12-28T04:21:13;15.30;;;6.00;;
75550;SDS011;65071;53.082;18.218;2023-12-28T04:23:40;19.30;;;6.80;;
75550;SDS011;65071;53.082;18.218;2023-12-28T04:26:08;11.90;;;4.20;;
75550;SDS011;65071;53.082;18.218;2023-12-28T04:28:34;19.00;;;7.60;;
75550;SDS011;65071;53.082;18.218;2023-12-28T04:31:05;14.90;;;6.70;;
75550;SDS011;65071;53.082;18.218;2023-12-28T04:33:32;17.30;;;7.00;;
75550;SDS011;65071;53.082;18.218;2023-12-28T04:36:02;11.10;;;4.70;;
75550;SDS011;65071;53.082;18.218;2023-12-28T04:38:30;17.30;;;6.20;;
75550;SDS011;65071;53.082;18.218;2023-12-28T04:40:58;14.60;;;6.20;;
75550;SDS011;65071;53.082;18.218;2023-12-28T04:43:25;17.80;;;7.10;;
75550;SDS011;65071;53.082;18.218;2023-12-28T04:45:52;18.80;;;7.60;;
75550;SDS011;65071;53.082;18.218;2023-12-28T04:48:18;13.80;;;5.50;;
75550;SDS011;65071;53.082;18.218;2023-12-28T04:50:47;16.50;;;6.40;;
75550;SDS011;65071;53.082;18.218;2023-12-28T04:53:14;16.90;;;6.60;;
75550;SDS011;65071;53.082;18.218;2023-12-28T04:55:40;14.40;;;6.10;;
75550;SDS011;65071;53.082;18.218;2023-12-28T04:58:07;16.50;;;6.10;;
75550;SDS011;65071;53.082;18.218;2023-12-28T05:00:34;19.10;;;8.30;;
75550;SDS011;65071;53.082;18.218;2023-12-28T05:03:00;15.00;;;6.20;;
75550;SDS011;65071;53.082;18.218;2023-12-28T05:05:26;17.70;;;6.90;;
75550;SDS011;65071;53.082;18.218;2023-12-28T05:07:52;17.00;;;6.40;;
75550;SDS011;65071;53.082;18.218;2023-12-28T05:10:19;15.60;;;6.80;;
75550;SDS011;65071;53.082;18.218;2023-12-28T05:12:45;12.40;;;5.10;;
75550;SDS011;65071;53.082;18.218;2023-12-28T05:15:12;14.90;;;6.60;;
75550;SDS011;65071;53.082;18.218;2023-12-28T05:17:38;14.80;;;6.20;;
75550;SDS011;65071;53.082;18.218;2023-12-28T05:20:05;16.50;;;7.20;;
75550;SDS011;65071;53.082;18.218;2023-12-28T05:22:32;13.60;;;6.50;;
75550;SDS011;65071;53.082;18.218;2023-12-28T05:24:58;19.50;;;8.40;;
75550;SDS011;65071;53.082;18.218;2023-12-28T05:27:24;14.30;;;7.50;;
75550;SDS011;65071;53.082;18.218;2023-12-28T05:29:51;13.20;;;6.40;;
75550;SDS011;65071;53.082;18.218;2023-12-28T05:32:17;12.30;;;5.40;;
75550;SDS011;65071;53.082;18.218;2023-12-28T05:34:43;14.80;;;5.60;;
75550;SDS011;65071;53.082;18.218;2023-12-28T05:37:10;17.40;;;7.60;;
75550;SDS011;65071;53.082;18.218;2023-12-28T05:39:36;19.30;;;7.60;;
75550;SDS011;65071;53.082;18.218;2023-12-28T05:42:02;19.30;;;7.30;;
75550;SDS011;65071;53.082;18.218;2023-12-28T05:44:29;14.80;;;6.40;;
75550;SDS011;65071;53.082;18.218;2023-12-28T05:46:56;16.60;;;7.00;;
75550;SDS011;65071;53.082;18.218;2023-12-28T05:49:23;12.30;;;6.20;;
75550;SDS011;65071;53.082;18.218;2023-12-28T05:51:51;15.60;;;7.00;;
75550;SDS011;65071;53.082;18.218;2023-12-28T05:54:17;15.80;;;6.70;;
75550;SDS011;65071;53.082;18.218;2023-12-28T05:56:43;17.20;;;7.00;;
75550;SDS011;65071;53.082;18.218;2023-12-28T05:59:09;15.70;;;7.70;;
75550;SDS011;65071;53.082;18.218;2023-12-28T06:01:42;12.90;;;6.10;;
75550;SDS011;65071;53.082;18.218;2023-12-28T06:04:09;12.70;;;6.20;;
75550;SDS011;65071;53.082;18.218;2023-12-28T06:06:36;15.50;;;6.50;;
75550;SDS011;65071;53.082;18.218;2023-12-28T06:09:03;15.00;;;6.40;;
75550;SDS011;65071;53.082;18.218;2023-12-28T06:11:29;16.00;;;6.60;;
75550;SDS011;65071;53.082;18.218;2023-12-28T06:13:56;14.30;;;6.00;;
75550;SDS011;65071;53.082;18.218;2023-12-28T06:16:22;17.60;;;6.30;;
75550;SDS011;65071;53.082;18.218;2023-12-28T06:18:49;18.90;;;7.90;;
75550;SDS011;65071;53.082;18.218;2023-12-28T06:21:15;15.80;;;7.00;;
75550;SDS011;65071;53.082;18.218;2023-12-28T06:23:42;16.60;;;7.50;;
75550;SDS011;65071;53.082;18.218;2023-12-28T06:26:08;15.20;;;6.40;;
75550;SDS011;65071;53.082;18.218;2023-12-28T06:28:34;12.90;;;5.20;;
75550;SDS011;65071;53.082;18.218;2023-12-28T06:31:00;17.70;;;6.70;;
75550;SDS011;65071;53.082;18.218;2023-12-28T06:33:27;16.70;;;6.70;;
75550;SDS011;65071;53.082;18.218;2023-12-28T06:35:55;15.50;;;6.20;;
75550;SDS011;65071;53.082;18.218;2023-12-28T06:38:24;15.40;;;6.80;;
75550;SDS011;65071;53.082;18.218;2023-12-28T06:40:51;14.60;;;6.30;;
75550;SDS011;65071;53.082;18.218;2023-12-28T06:43:18;12.80;;;6.00;;
75550;SDS011;65071;53.082;18.218;2023-12-28T06:45:44;15.70;;;6.90;;
75550;SDS011;65071;53.082;18.218;2023-12-28T06:48:10;15.60;;;6.80;;
75550;SDS011;65071;53.082;18.218;2023-12-28T06:50:36;17.00;;;7.50;;
75550;SDS011;65071;53.082;18.218;2023-12-28T06:53:03;15.40;;;6.10;;
75550;SDS011;65071;53.082;18.218;2023-12-28T06:55:29;17.20;;;7.10;;
75550;SDS011;65071;53.082;18.218;2023-12-28T06:57:55;16.70;;;7.10;;
75550;SDS011;65071;53.082;18.218;2023-12-28T07:00:22;13.00;;;6.70;;
75550;SDS011;65071;53.082;18.218;2023-12-28T07:02:48;16.60;;;7.50;;
75550;SDS011;65071;53.082;18.218;2023-12-28T07:05:14;12.60;;;6.00;;
75550;SDS011;65071;53.082;18.218;2023-12-28T07:07:41;14.90;;;6.30;;
75550;SDS011;65071;53.082;18.218;2023-12-28T07:10:07;17.80;;;8.10;;
75550;SDS011;65071;53.082;18.218;2023-12-28T07:12:34;12.60;;;6.30;;
75550;SDS011;65071;53.082;18.218;2023-12-28T07:15:01;14.50;;;6.90;;
75550;SDS011;65071;53.082;18.218;2023-12-28T07:17:27;16.40;;;7.60;;
75550;SDS011;65071;53.082;18.218;2023-12-28T07:19:54;16.60;;;7.30;;
75550;SDS011;65071;53.082;18.218;2023-12-28T07:22:20;15.70;;;6.90;;
75550;SDS011;65071;53.082;18.218;2023-12-28T07:24:46;13.90;;;6.60;;
75550;SDS011;65071;53.082;18.218;2023-12-28T07:27:12;12.10;;;6.50;;
75550;SDS011;65071;53.082;18.218;2023-12-28T07:29:38;14.30;;;7.20;;
75550;SDS011;65071;53.082;18.218;2023-12-28T07:32:05;11.70;;;5.70;;
75550;SDS011;65071;53.082;18.218;2023-12-28T07:34:34;12.70;;;7.30;;
75550;SDS011;65071;53.082;18.218;2023-12-28T07:37:00;13.70;;;6.10;;
75550;SDS011;65071;53.082;18.218;2023-12-28T07:39:27;10.50;;;5.70;;
75550;SDS011;65071;53.082;18.218;2023-12-28T07:41:53;12.60;;;5.70;;
75550;SDS011;65071;53.082;18.218;2023-12-28T07:44:22;12.50;;;6.70;;
75550;SDS011;65071;53.082;18.218;2023-12-28T07:46:48;12.80;;;5.40;;
75550;SDS011;65071;53.082;18.218;2023-12-28T07:49:15;10.90;;;5.40;;
75550;SDS011;65071;53.082;18.218;2023-12-28T07:51:41;9.70;;;4.80;;
75550;SDS011;65071;53.082;18.218;2023-12-28T07:54:07;10.30;;;6.40;;
75550;SDS011;65071;53.082;18.218;2023-12-28T07:56:34;9.20;;;4.40;;
75550;SDS011;65071;53.082;18.218;2023-12-28T07:59:01;10.10;;;4.90;;
75550;SDS011;65071;53.082;18.218;2023-12-28T08:01:27;8.60;;;4.80;;
75550;SDS011;65071;53.082;18.218;2023-12-28T08:03:54;11.50;;;5.20;;
75550;SDS011;65071;53.082;18.218;2023-12-28T08:06:20;9.50;;;4.50;;
75550;SDS011;65071;53.082;18.218;2023-12-28T08:08:46;10.10;;;4.90;;
75550;SDS011;65071;53.082;18.218;2023-12-28T08:11:13;10.20;;;4.50;;
75550;SDS011;65071;53.082;18.218;2023-12-28T08:13:39;10.20;;;4.60;;
75550;SDS011;65071;53.082;18.218;2023-12-28T08:16:06;8.10;;;4.00;;
75550;SDS011;65071;53.082;18.218;2023-12-28T08:18:32;9.50;;;4.40;;
75550;SDS011;65071;53.082;18.218;2023-12-28T08:20:59;8.10;;;3.70;;
75550;SDS011;65071;53.082;18.218;2023-12-28T08:23:26;10.10;;;4.50;;
75550;SDS011;65071;53.082;18.218;2023-12-28T08:25:52;7.60;;;3.40;;
75550;SDS011;65071;53.082;18.218;2023-12-28T08:28:18;6.60;;;3.60;;
75550;SDS011;65071;53.082;18.218;2023-12-28T08:30:45;6.00;;;3.30;;
75550;SDS011;65071;53.082;18.218;2023-12-28T08:33:11;10.10;;;4.30;;
75550;SDS011;65071;53.082;18.218;2023-12-28T08:35:38;8.30;;;3.80;;
75550;SDS011;65071;53.082;18.218;2023-12-28T08:38:04;7.20;;;3.40;;
75550;SDS011;65071;53.082;18.218;2023-12-28T08:40:32;8.50;;;3.50;;
75550;SDS011;65071;53.082;18.218;2023-12-28T08:42:58;6.90;;;3.10;;
75550;SDS011;65071;53.082;18.218;2023-12-28T08:45:24;5.10;;;2.60;;
75550;SDS011;65071;53.082;18.218;2023-12-28T08:47:51;8.50;;;4.00;;
75550;SDS011;65071;53.082;18.218;2023-12-28T08:50:17;8.40;;;3.50;;
75550;SDS011;65071;53.082;18.218;2023-12-28T08:52:43;8.80;;;3.90;;
75550;SDS011;65071;53.082;18.218;2023-12-28T08:55:10;9.30;;;4.00;;
75550;SDS011;65071;53.082;18.218;2023-12-28T08:57:36;12.50;;;5.10;;
75550;SDS011;65071;53.082;18.218;2023-12-28T09:00:06;8.30;;;3.20;;
75550;SDS011;65071;53.082;18.218;2023-12-28T09:02:33;9.70;;;4.20;;
75550;SDS011;65071;53.082;18.218;2023-12-28T09:05:00;8.60;;;4.10;;
75550;SDS011;65071;53.082;18.218;2023-12-28T09:07:26;6.40;;;3.70;;
75550;SDS011;65071;53.082;18.218;2023-12-28T09:09:53;8.00;;;3.20;;
75550;SDS011;65071;53.082;18.218;2023-12-28T09:12:19;8.20;;;3.40;;
75550;SDS011;65071;53.082;18.218;2023-12-28T09:14:45;7.60;;;3.70;;
75550;SDS011;65071;53.082;18.218;2023-12-28T09:17:12;9.00;;;3.70;;
75550;SDS011;65071;53.082;18.218;2023-12-28T09:19:38;7.00;;;3.20;;
75550;SDS011;65071;53.082;18.218;2023-12-28T09:22:04;9.50;;;3.20;;
75550;SDS011;65071;53.082;18.218;2023-12-28T09:24:30;6.90;;;3.10;;
75550;SDS011;65071;53.082;18.218;2023-12-28T09:26:56;7.70;;;3.40;;
75550;SDS011;65071;53.082;18.218;2023-12-28T09:29:23;7.20;;;3.60;;
75550;SDS011;65071;53.082;18.218;2023-12-28T09:31:50;7.00;;;3.70;;
75550;SDS011;65071;53.082;18.218;2023-12-28T09:34:16;3.70;;;2.40;;
75550;SDS011;65071;53.082;18.218;2023-12-28T09:36:43;5.10;;;2.80;;
75550;SDS011;65071;53.082;18.218;2023-12-28T09:39:09;6.50;;;3.20;;
75550;SDS011;65071;53.082;18.218;2023-12-28T09:41:36;8.50;;;4.10;;
75550;SDS011;65071;53.082;18.218;2023-12-28T09:44:10;7.10;;;3.20;;
75550;SDS011;65071;53.082;18.218;2023-12-28T09:46:41;8.70;;;3.50;;
75550;SDS011;65071;53.082;18.218;2023-12-28T09:49:08;6.00;;;2.90;;
75550;SDS011;65071;53.082;18.218;2023-12-28T09:51:36;6.80;;;3.00;;
75550;SDS011;65071;53.082;18.218;2023-12-28T09:54:03;5.10;;;3.10;;
75550;SDS011;65071;53.082;18.218;2023-12-28T09:56:30;6.80;;;3.60;;
75550;SDS011;65071;53.082;18.218;2023-12-28T09:58:58;4.90;;;3.10;;
75550;SDS011;65071;53.082;18.218;2023-12-28T10:01:25;7.00;;;3.10;;
75550;SDS011;65071;53.082;18.218;2023-12-28T10:03:51;5.00;;;3.20;;
75550;SDS011;65071;53.082;18.218;2023-12-28T10:06:17;7.10;;;3.50;;
75550;SDS011;65071;53.082;18.218;2023-12-28T10:08:47;6.70;;;3.20;;
75550;SDS011;65071;53.082;18.218;2023-12-28T10:11:15;6.00;;;3.30;;
75550;SDS011;65071;53.082;18.218;2023-12-28T10:13:43;7.20;;;3.10;;
75550;SDS011;65071;53.082;18.218;2023-12-28T10:16:11;5.50;;;2.70;;
75550;SDS011;65071;53.082;18.218;2023-12-28T10:18:41;4.60;;;2.80;;
75550;SDS011;65071;53.082;18.218;2023-12-28T10:21:09;4.60;;;2.90;;
75550;SDS011;65071;53.082;18.218;2023-12-28T10:23:35;6.00;;;3.00;;
75550;SDS011;65071;53.082;18.218;2023-12-28T10:26:03;5.70;;;3.00;;
75550;SDS011;65071;53.082;18.218;2023-12-28T10:28:32;4.20;;;2.40;;
75550;SDS011;65071;53.082;18.218;2023-12-28T10:30:59;5.10;;;3.10;;
75550;SDS011;65071;53.082;18.218;2023-12-28T10:33:25;6.80;;;3.30;;
75550;SDS011;65071;53.082;18.218;2023-12-28T10:35:51;5.10;;;2.90;;
75550;SDS011;65071;53.082;18.218;2023-12-28T10:38:19;4.80;;;2.40;;
75550;SDS011;65071;53.082;18.218;2023-12-28T10:40:46;6.80;;;2.70;;
75550;SDS011;65071;53.082;18.218;2023-12-28T10:43:15;4.20;;;2.40;;
75550;SDS011;65071;53.082;18.218;2023-12-28T10:45:42;4.50;;;2.80;;
75550;SDS011;65071;53.082;18.218;2023-12-28T10:48:12;5.20;;;2.90;;
75550;SDS011;65071;53.082;18.218;2023-12-28T10:50:42;6.40;;;3.20;;
75550;SDS011;65071;53.082;18.218;2023-12-28T10:56:10;4.80;;;2.50;;
75550;SDS011;65071;53.082;18.218;2023-12-28T10:58:53;4.90;;;2.80;;
75550;SDS011;65071;53.082;18.218;2023-12-28T11:01:32;6.80;;;3.10;;
75550;SDS011;65071;53.082;18.218;2023-12-28T11:04:11;5.00;;;2.80;;
75550;SDS011;65071;53.082;18.218;2023-12-28T11:06:46;6.20;;;2.90;;
75550;SDS011;65071;53.082;18.218;2023-12-28T11:09:14;7.20;;;3.20;;
75550;SDS011;65071;53.082;18.218;2023-12-28T11:11:44;5.60;;;2.90;;
75550;SDS011;65071;53.082;18.218;2023-12-28T11:14:13;6.00;;;3.00;;
75550;SDS011;65071;53.082;18.218;2023-12-28T11:16:40;5.70;;;3.00;;
75550;SDS011;65071;53.082;18.218;2023-12-28T11:19:08;5.90;;;2.70;;
75550;SDS011;65071;53.082;18.218;2023-12-28T11:21:35;5.60;;;3.40;;
75550;SDS011;65071;53.082;18.218;2023-12-28T11:24:02;6.00;;;2.90;;
75550;SDS011;65071;53.082;18.218;2023-12-28T11:26:29;4.20;;;2.30;;
75550;SDS011;65071;53.082;18.218;2023-12-28T11:29:02;5.50;;;2.70;;
75550;SDS011;65071;53.082;18.218;2023-12-28T11:31:33;5.00;;;2.40;;
75550;SDS011;65071;53.082;18.218;2023-12-28T11:34:01;4.80;;;2.50;;
75550;SDS011;65071;53.082;18.218;2023-12-28T11:36:33;4.80;;;2.50;;
75550;SDS011;65071;53.082;18.218;2023-12-28T11:39:02;5.30;;;2.70;;
75550;SDS011;65071;53.082;18.218;2023-12-28T11:41:33;3.70;;;2.10;;
75550;SDS011;65071;53.082;18.218;2023-12-28T11:44:02;3.90;;;2.40;;
75550;SDS011;65071;53.082;18.218;2023-12-28T11:46:31;3.40;;;1.80;;
75550;SDS011;65071;53.082;18.218;2023-12-28T11:49:04;5.80;;;2.30;;
75550;SDS011;65071;53.082;18.218;2023-12-28T11:51:35;2.90;;;2.00;;
75550;SDS011;65071;53.082;18.218;2023-12-28T11:54:04;3.40;;;2.20;;
75550;SDS011;65071;53.082;18.218;2023-12-28T11:56:31;4.70;;;3.00;;
75550;SDS011;65071;53.082;18.218;2023-12-28T11:59:02;3.40;;;2.00;;
75550;SDS011;65071;53.082;18.218;2023-12-28T12:01:28;4.70;;;2.20;;
75550;SDS011;65071;53.082;18.218;2023-12-28T12:03:55;4.50;;;2.30;;
75550;SDS011;65071;53.082;18.218;2023-12-28T12:06:21;5.90;;;2.40;;
75550;SDS011;65071;53.082;18.218;2023-12-28T12:08:49;4.00;;;2.20;;
75550;SDS011;65071;53.082;18.218;2023-12-28T12:11:16;3.70;;;1.90;;
75550;SDS011;65071;53.082;18.218;2023-12-28T12:13:44;3.70;;;2.20;;
75550;SDS011;65071;53.082;18.218;2023-12-28T12:16:13;4.70;;;2.30;;
75550;SDS011;65071;53.082;18.218;2023-12-28T12:18:40;6.00;;;2.90;;
75550;SDS011;65071;53.082;18.218;2023-12-28T12:21:06;5.20;;;3.00;;
75550;SDS011;65071;53.082;18.218;2023-12-28T12:23:33;6.30;;;3.10;;
75550;SDS011;65071;53.082;18.218;2023-12-28T12:25:59;5.70;;;2.70;;
75550;SDS011;65071;53.082;18.218;2023-12-28T12:28:25;5.40;;;2.90;;
75550;SDS011;65071;53.082;18.218;2023-12-28T12:30:55;9.30;;;4.40;;
75550;SDS011;65071;53.082;18.218;2023-12-28T12:33:22;11.90;;;4.80;;
75550;SDS011;65071;53.082;18.218;2023-12-28T12:35:51;11.40;;;5.70;;
75550;SDS011;65071;53.082;18.218;2023-12-28T12:38:18;12.10;;;5.80;;
75550;SDS011;65071;53.082;18.218;2023-12-28T12:40:45;23.00;;;9.20;;
75550;SDS011;65071;53.082;18.218;2023-12-28T12:43:12;11.60;;;5.20;;
75550;SDS011;65071;53.082;18.218;2023-12-28T12:45:39;9.10;;;4.00;;
75550;SDS011;65071;53.082;18.218;2023-12-28T12:48:05;8.00;;;4.30;;
75550;SDS011;65071;53.082;18.218;2023-12-28T12:50:32;6.30;;;3.40;;
75550;SDS011;65071;53.082;18.218;2023-12-28T12:52:59;4.70;;;2.80;;
75550;SDS011;65071;53.082;18.218;2023-12-28T12:55:27;6.80;;;3.60;;
75550;SDS011;65071;53.082;18.218;2023-12-28T12:57:53;5.30;;;2.60;;
75550;SDS011;65071;53.082;18.218;2023-12-28T13:02:50;4.40;;;1.90;;
75550;SDS011;65071;53.082;18.218;2023-12-28T13:05:21;5.70;;;2.60;;
75550;SDS011;65071;53.082;18.218;2023-12-28T13:07:47;4.70;;;2.50;;
75550;SDS011;65071;53.082;18.218;2023-12-28T13:10:13;5.70;;;2.40;;
75550;SDS011;65071;53.082;18.218;2023-12-28T13:12:39;8.20;;;2.60;;
75550;SDS011;65071;53.082;18.218;2023-12-28T13:15:06;4.80;;;2.60;;
75550;SDS011;65071;53.082;18.218;2023-12-28T13:17:33;5.60;;;3.10;;
75550;SDS011;65071;53.082;18.218;2023-12-28T13:19:59;4.50;;;2.60;;
75550;SDS011;65071;53.082;18.218;2023-12-28T13:22:25;6.80;;;3.00;;
75550;SDS011;65071;53.082;18.218;2023-12-28T13:24:52;5.10;;;2.50;;
75550;SDS011;65071;53.082;18.218;2023-12-28T13:27:18;9.20;;;3.70;;
75550;SDS011;65071;53.082;18.218;2023-12-28T13:29:45;9.30;;;3.90;;
75550;SDS011;65071;53.082;18.218;2023-12-28T13:32:11;22.80;;;7.30;;
75550;SDS011;65071;53.082;18.218;2023-12-28T13:34:37;19.60;;;6.60;;
75550;SDS011;65071;53.082;18.218;2023-12-28T13:37:04;18.50;;;6.70;;
75550;SDS011;65071;53.082;18.218;2023-12-28T13:39:30;14.50;;;5.90;;
75550;SDS011;65071;53.082;18.218;2023-12-28T13:41:57;16.50;;;7.30;;
75550;SDS011;65071;53.082;18.218;2023-12-28T13:44:24;11.10;;;4.50;;
75550;SDS011;65071;53.082;18.218;2023-12-28T13:46:51;7.70;;;3.20;;
75550;SDS011;65071;53.082;18.218;2023-12-28T13:49:20;5.80;;;3.10;;
75550;SDS011;65071;53.082;18.218;2023-12-28T13:51:46;6.00;;;2.40;;
75550;SDS011;65071;53.082;18.218;2023-12-28T13:54:13;5.20;;;2.70;;
75550;SDS011;65071;53.082;18.218;2023-12-28T13:56:40;7.30;;;3.00;;
75550;SDS011;65071;53.082;18.218;2023-12-28T13:59:08;5.80;;;2.60;;
75550;SDS011;65071;53.082;18.218;2023-12-28T14:01:35;6.30;;;2.70;;
75550;SDS011;65071;53.082;18.218;2023-12-28T14:04:01;5.60;;;2.90;;
75550;SDS011;65071;53.082;18.218;2023-12-28T14:06:29;6.50;;;3.30;;
75550;SDS011;65071;53.082;18.218;2023-12-28T14:08:55;6.60;;;3.60;;
75550;SDS011;65071;53.082;18.218;2023-12-28T14:11:24;8.20;;;4.00;;
75550;SDS011;65071;53.082;18.218;2023-12-28T14:13:51;8.30;;;4.40;;
75550;SDS011;65071;53.082;18.218;2023-12-28T14:16:17;11.30;;;4.90;;
75550;SDS011;65071;53.082;18.218;2023-12-28T14:18:43;7.60;;;3.80;;
75550;SDS011;65071;53.082;18.218;2023-12-28T14:21:10;7.30;;;4.10;;
75550;SDS011;65071;53.082;18.218;2023-12-28T14:23:38;6.30;;;3.30;;
75550;SDS011;65071;53.082;18.218;2023-12-28T14:26:10;6.50;;;3.70;;
75550;SDS011;65071;53.082;18.218;2023-12-28T14:28:40;6.40;;;3.30;;
75550;SDS011;65071;53.082;18.218;2023-12-28T14:31:10;5.90;;;3.40;;
75550;SDS011;65071;53.082;18.218;2023-12-28T14:33:38;8.30;;;3.80;;
75550;SDS011;65071;53.082;18.218;2023-12-28T14:36:06;7.50;;;3.50;;